sensor_id;sensor_type;location;lat;lon;timestamp;temperature;humidity
11619;DHT22;5865;48.776;9.280;2023-07-13T00:01:05;20.00;99.90
11619;DHT22;5865;48.776;9.280;2023-07-13T00:03:34;19.80;99.90
11619;DHT22;5865;48.776;9.280;2023-07-13T00:06:01;19.60;99.90
11619;DHT22;5865;48.776;9.280;2023-07-13T00:08:30;19.70;99.90
11619;DHT22;5865;48.776;9.280;2023-07-13T00:10:59;19.70;99.90
11619;DHT22;5865;48.776;9.280;2023-07-13T00:13:26;19.50;99.90
11619;DHT22;5865;48.776;9.280;2023-07-13T00:15:53;19.50;99.90
11619;DHT22;5865;48.776;9.280;2023-07-13T00:18:21;19.40;99.90
11619;DHT22;5865;48.776;9.280;2023-07-13T00:20:50;19.20;99.90
11619;DHT22;5865;48.776;9.280;2023-07-13T00:23:16;18.90;99.90
11619;DHT22;5865;48.776;9.280;2023-07-13T00:25:44;18.90;99.90
11619;DHT22;5865;48.776;9.280;2023-07-13T00:28:11;18.90;99.90
11619;DHT22;5865;48.776;9.280;2023-07-13T00:30:38;18.80;99.90
11619;DHT22;5865;48.776;9.280;2023-07-13T00:33:05;18.80;99.90
11619;DHT22;5865;48.776;9.280;2023-07-13T00:35:34;18.60;99.90
11619;DHT22;5865;48.776;9.280;2023-07-13T00:38:02;18.40;99.90
11619;DHT22;5865;48.776;9.280;2023-07-13T00:40:29;18.50;99.90
11619;DHT22;5865;48.776;9.280;2023-07-13T00:42:57;18.30;99.90
11619;DHT22;5865;48.776;9.280;2023-07-13T00:48:32;18.20;99.90
11619;DHT22;5865;48.776;9.280;2023-07-13T00:51:00;18.30;99.90
11619;DHT22;5865;48.776;9.280;2023-07-13T00:53:31;18.20;99.90
11619;DHT22;5865;48.776;9.280;2023-07-13T00:55:59;18.00;99.90
11619;DHT22;5865;48.776;9.280;2023-07-13T00:58:28;17.90;99.90
11619;DHT22;5865;48.776;9.280;2023-07-13T01:00:57;17.90;99.90
11619;DHT22;5865;48.776;9.280;2023-07-13T01:03:24;17.70;99.90
11619;DHT22;5865;48.776;9.280;2023-07-13T01:05:53;17.80;99.90
11619;DHT22;5865;48.776;9.280;2023-07-13T01:08:20;17.70;99.90
11619;DHT22;5865;48.776;9.280;2023-07-13T01:10:53;17.60;99.90
11619;DHT22;5865;48.776;9.280;2023-07-13T01:13:20;17.50;99.90
11619;DHT22;5865;48.776;9.280;2023-07-13T01:15:48;17.40;99.90
11619;DHT22;5865;48.776;9.280;2023-07-13T01:18:17;17.50;99.90
11619;DHT22;5865;48.776;9.280;2023-07-13T01:20:52;17.40;99.90
11619;DHT22;5865;48.776;9.280;2023-07-13T01:23:20;17.40;99.90
11619;DHT22;5865;48.776;9.280;2023-07-13T01:25:48;17.20;99.90
11619;DHT22;5865;48.776;9.280;2023-07-13T01:28:15;17.20;99.90
11619;DHT22;5865;48.776;9.280;2023-07-13T01:30:43;17.10;99.90
11619;DHT22;5865;48.776;9.280;2023-07-13T01:33:12;17.00;99.90
11619;DHT22;5865;48.776;9.280;2023-07-13T01:35:40;16.90;99.90
11619;DHT22;5865;48.776;9.280;2023-07-13T01:38:09;16.90;99.90
11619;DHT22;5865;48.776;9.280;2023-07-13T01:40:37;16.70;99.90
11619;DHT22;5865;48.776;9.280;2023-07-13T01:43:05;16.60;99.90
11619;DHT22;5865;48.776;9.280;2023-07-13T01:45:32;16.60;99.90
11619;DHT22;5865;48.776;9.280;2023-07-13T01:47:59;16.50;99.90
11619;DHT22;5865;48.776;9.280;2023-07-13T01:50:26;16.60;99.90
11619;DHT22;5865;48.776;9.280;2023-07-13T01:52:53;16.40;99.90
11619;DHT22;5865;48.776;9.280;2023-07-13T01:55:22;16.50;99.90
11619;DHT22;5865;48.776;9.280;2023-07-13T01:57:49;16.60;99.90
11619;DHT22;5865;48.776;9.280;2023-07-13T02:00:17;16.40;99.90
11619;DHT22;5865;48.776;9.280;2023-07-13T02:02:47;16.60;99.90
11619;DHT22;5865;48.776;9.280;2023-07-13T02:05:14;16.60;99.90
11619;DHT22;5865;48.776;9.280;2023-07-13T02:07:42;16.50;99.90
11619;DHT22;5865;48.776;9.280;2023-07-13T02:10:10;16.20;99.90
11619;DHT22;5865;48.776;9.280;2023-07-13T02:12:38;16.10;99.90
11619;DHT22;5865;48.776;9.280;2023-07-13T02:15:06;15.90;99.90
11619;DHT22;5865;48.776;9.280;2023-07-13T02:17:33;15.90;99.90
11619;DHT22;5865;48.776;9.280;2023-07-13T02:20:01;15.90;99.90
11619;DHT22;5865;48.776;9.280;2023-07-13T02:22:29;16.00;99.90
11619;DHT22;5865;48.776;9.280;2023-07-13T02:24:56;15.70;99.90
11619;DHT22;5865;48.776;9.280;2023-07-13T02:27:25;15.60;99.90
11619;DHT22;5865;48.776;9.280;2023-07-13T02:29:53;15.40;99.90
11619;DHT22;5865;48.776;9.280;2023-07-13T02:32:21;15.30;99.90
11619;DHT22;5865;48.776;9.280;2023-07-13T02:34:48;15.20;99.90
11619;DHT22;5865;48.776;9.280;2023-07-13T02:37:15;15.20;99.90
11619;DHT22;5865;48.776;9.280;2023-07-13T02:39:42;15.10;99.90
11619;DHT22;5865;48.776;9.280;2023-07-13T02:42:09;15.00;99.90
11619;DHT22;5865;48.776;9.280;2023-07-13T02:44:37;14.70;99.90
11619;DHT22;5865;48.776;9.280;2023-07-13T02:47:05;14.80;99.90
11619;DHT22;5865;48.776;9.280;2023-07-13T02:49:32;14.70;99.90
11619;DHT22;5865;48.776;9.280;2023-07-13T02:51:59;14.60;99.90
11619;DHT22;5865;48.776;9.280;2023-07-13T02:54:26;14.50;99.90
11619;DHT22;5865;48.776;9.280;2023-07-13T02:56:53;14.50;99.90
11619;DHT22;5865;48.776;9.280;2023-07-13T02:59:20;14.50;99.90
11619;DHT22;5865;48.776;9.280;2023-07-13T03:01:47;14.60;99.90
11619;DHT22;5865;48.776;9.280;2023-07-13T03:04:15;14.70;99.90
11619;DHT22;5865;48.776;9.280;2023-07-13T03:09:13;14.50;99.90
11619;DHT22;5865;48.776;9.280;2023-07-13T03:11:44;14.30;99.90
11619;DHT22;5865;48.776;9.280;2023-07-13T03:14:19;14.20;99.90
11619;DHT22;5865;48.776;9.280;2023-07-13T03:16:47;14.20;99.90
11619;DHT22;5865;48.776;9.280;2023-07-13T03:19:15;14.20;99.90
11619;DHT22;5865;48.776;9.280;2023-07-13T03:21:47;14.20;99.90
11619;DHT22;5865;48.776;9.280;2023-07-13T03:24:14;14.30;99.90
11619;DHT22;5865;48.776;9.280;2023-07-13T03:26:41;14.30;99.90
11619;DHT22;5865;48.776;9.280;2023-07-13T03:29:08;14.50;99.90
11619;DHT22;5865;48.776;9.280;2023-07-13T03:31:36;14.60;99.90
11619;DHT22;5865;48.776;9.280;2023-07-13T03:34:04;14.80;99.90
11619;DHT22;5865;48.776;9.280;2023-07-13T03:39:05;15.30;99.90
11619;DHT22;5865;48.776;9.280;2023-07-13T03:41:44;15.30;99.90
11619;DHT22;5865;48.776;9.280;2023-07-13T03:44:12;15.40;99.90
11619;DHT22;5865;48.776;9.280;2023-07-13T03:46:39;15.60;99.90
11619;DHT22;5865;48.776;9.280;2023-07-13T03:49:07;15.90;99.90
11619;DHT22;5865;48.776;9.280;2023-07-13T03:51:35;16.10;99.90
11619;DHT22;5865;48.776;9.280;2023-07-13T03:54:02;16.10;99.90
11619;DHT22;5865;48.776;9.280;2023-07-13T03:56:30;16.20;99.90
11619;DHT22;5865;48.776;9.280;2023-07-13T03:58:59;16.10;99.90
11619;DHT22;5865;48.776;9.280;2023-07-13T04:01:26;16.20;99.90
11619;DHT22;5865;48.776;9.280;2023-07-13T04:03:53;16.20;99.90
11619;DHT22;5865;48.776;9.280;2023-07-13T04:06:26;16.60;99.90
11619;DHT22;5865;48.776;9.280;2023-07-13T04:08:55;17.10;99.90
11619;DHT22;5865;48.776;9.280;2023-07-13T04:11:25;17.00;99.90
11619;DHT22;5865;48.776;9.280;2023-07-13T04:13:52;17.00;99.90
11619;DHT22;5865;48.776;9.280;2023-07-13T04:16:20;17.20;99.90
11619;DHT22;5865;48.776;9.280;2023-07-13T04:18:48;17.10;99.90
11619;DHT22;5865;48.776;9.280;2023-07-13T04:21:16;17.40;99.90
11619;DHT22;5865;48.776;9.280;2023-07-13T04:23:43;17.50;99.90
11619;DHT22;5865;48.776;9.280;2023-07-13T04:26:11;17.90;99.90
11619;DHT22;5865;48.776;9.280;2023-07-13T04:28:38;17.90;99.90
11619;DHT22;5865;48.776;9.280;2023-07-13T04:33:36;18.20;99.90
11619;DHT22;5865;48.776;9.280;2023-07-13T04:36:05;18.10;99.90
11619;DHT22;5865;48.776;9.280;2023-07-13T04:41:01;18.10;99.90
11619;DHT22;5865;48.776;9.280;2023-07-13T04:43:30;18.30;99.90
11619;DHT22;5865;48.776;9.280;2023-07-13T04:46:02;18.30;99.90
11619;DHT22;5865;48.776;9.280;2023-07-13T04:48:29;18.10;99.90
11619;DHT22;5865;48.776;9.280;2023-07-13T04:50:57;18.10;99.90
11619;DHT22;5865;48.776;9.280;2023-07-13T04:55:52;17.80;99.90
11619;DHT22;5865;48.776;9.280;2023-07-13T04:58:19;17.40;99.90
11619;DHT22;5865;48.776;9.280;2023-07-13T05:05:55;17.20;99.90
11619;DHT22;5865;48.776;9.280;2023-07-13T05:13:17;17.10;99.90
11619;DHT22;5865;48.776;9.280;2023-07-13T05:15:44;17.20;99.90
11619;DHT22;5865;48.776;9.280;2023-07-13T05:20:40;17.50;99.90
11619;DHT22;5865;48.776;9.280;2023-07-13T05:23:06;17.80;99.90
11619;DHT22;5865;48.776;9.280;2023-07-13T05:28:01;18.80;99.90
11619;DHT22;5865;48.776;9.280;2023-07-13T05:30:27;18.80;99.90
11619;DHT22;5865;48.776;9.280;2023-07-13T05:32:54;19.00;99.90
11619;DHT22;5865;48.776;9.280;2023-07-13T05:35:23;19.20;99.90
11619;DHT22;5865;48.776;9.280;2023-07-13T05:37:49;19.40;99.90
11619;DHT22;5865;48.776;9.280;2023-07-13T05:40:16;19.50;99.90
11619;DHT22;5865;48.776;9.280;2023-07-13T05:45:10;19.80;99.90
11619;DHT22;5865;48.776;9.280;2023-07-13T05:47:37;19.80;99.90
11619;DHT22;5865;48.776;9.280;2023-07-13T05:50:05;19.80;99.90
11619;DHT22;5865;48.776;9.280;2023-07-13T05:52:33;19.90;99.90
11619;DHT22;5865;48.776;9.280;2023-07-13T05:55:00;19.90;99.90
11619;DHT22;5865;48.776;9.280;2023-07-13T05:57:27;19.80;99.90
11619;DHT22;5865;48.776;9.280;2023-07-13T06:02:21;19.70;99.90
11619;DHT22;5865;48.776;9.280;2023-07-13T06:04:48;19.60;99.90
11619;DHT22;5865;48.776;9.280;2023-07-13T06:07:15;19.60;99.90
11619;DHT22;5865;48.776;9.280;2023-07-13T06:14:37;19.60;99.90
11619;DHT22;5865;48.776;9.280;2023-07-13T06:17:05;19.70;99.90
11619;DHT22;5865;48.776;9.280;2023-07-13T06:21:59;20.00;99.90
11619;DHT22;5865;48.776;9.280;2023-07-13T06:24:26;20.30;99.90
11619;DHT22;5865;48.776;9.280;2023-07-13T06:26:54;20.50;99.90
11619;DHT22;5865;48.776;9.280;2023-07-13T06:29:21;20.50;99.90
11619;DHT22;5865;48.776;9.280;2023-07-13T06:31:48;20.50;99.90
11619;DHT22;5865;48.776;9.280;2023-07-13T06:36:43;20.60;99.90
11619;DHT22;5865;48.776;9.280;2023-07-13T06:39:10;20.90;99.90
11619;DHT22;5865;48.776;9.280;2023-07-13T06:41:36;21.00;99.90
11619;DHT22;5865;48.776;9.280;2023-07-13T06:44:10;21.10;99.90
11619;DHT22;5865;48.776;9.280;2023-07-13T06:49:04;21.30;99.90
11619;DHT22;5865;48.776;9.280;2023-07-13T06:51:31;21.20;99.90
11619;DHT22;5865;48.776;9.280;2023-07-13T06:53:58;21.10;99.90
11619;DHT22;5865;48.776;9.280;2023-07-13T06:56:25;22.00;99.90
11619;DHT22;5865;48.776;9.280;2023-07-13T06:58:52;22.20;99.10
11619;DHT22;5865;48.776;9.280;2023-07-13T07:01:20;22.10;98.20
11619;DHT22;5865;48.776;9.280;2023-07-13T07:06:17;22.50;96.60
11619;DHT22;5865;48.776;9.280;2023-07-13T07:11:13;22.70;96.20
11619;DHT22;5865;48.776;9.280;2023-07-13T07:13:41;22.60;95.90
11619;DHT22;5865;48.776;9.280;2023-07-13T07:21:03;22.40;94.00
11619;DHT22;5865;48.776;9.280;2023-07-13T07:23:31;22.40;94.80
11619;DHT22;5865;48.776;9.280;2023-07-13T07:25:58;22.30;93.80
11619;DHT22;5865;48.776;9.280;2023-07-13T07:28:25;22.60;92.90
11619;DHT22;5865;48.776;9.280;2023-07-13T07:30:54;22.70;92.30
11619;DHT22;5865;48.776;9.280;2023-07-13T07:35:51;22.60;91.70
11619;DHT22;5865;48.776;9.280;2023-07-13T07:43:12;22.80;88.00
11619;DHT22;5865;48.776;9.280;2023-07-13T07:48:07;22.90;90.20
11619;DHT22;5865;48.776;9.280;2023-07-13T07:50:35;22.90;90.60
11619;DHT22;5865;48.776;9.280;2023-07-13T07:53:03;23.00;90.00
11619;DHT22;5865;48.776;9.280;2023-07-13T07:55:33;22.90;90.30
11619;DHT22;5865;48.776;9.280;2023-07-13T07:58:00;23.10;87.80
11619;DHT22;5865;48.776;9.280;2023-07-13T08:02:56;23.20;87.50
11619;DHT22;5865;48.776;9.280;2023-07-13T08:05:23;23.10;88.10
11619;DHT22;5865;48.776;9.280;2023-07-13T08:07:49;23.50;85.50
11619;DHT22;5865;48.776;9.280;2023-07-13T08:10:18;23.60;84.30
11619;DHT22;5865;48.776;9.280;2023-07-13T08:12:44;23.80;85.20
11619;DHT22;5865;48.776;9.280;2023-07-13T08:15:14;23.60;83.00
11619;DHT22;5865;48.776;9.280;2023-07-13T08:17:41;23.70;82.60
11619;DHT22;5865;48.776;9.280;2023-07-13T08:20:09;23.90;81.50
11619;DHT22;5865;48.776;9.280;2023-07-13T08:22:36;24.00;80.40
11619;DHT22;5865;48.776;9.280;2023-07-13T08:27:33;23.90;79.00
11619;DHT22;5865;48.776;9.280;2023-07-13T08:30:00;23.80;77.10
11619;DHT22;5865;48.776;9.280;2023-07-13T08:32:27;23.90;78.70
11619;DHT22;5865;48.776;9.280;2023-07-13T08:34:53;23.80;78.00
11619;DHT22;5865;48.776;9.280;2023-07-13T08:37:23;23.60;79.20
11619;DHT22;5865;48.776;9.280;2023-07-13T08:39:49;23.60;78.40
11619;DHT22;5865;48.776;9.280;2023-07-13T08:42:26;23.40;79.10
11619;DHT22;5865;48.776;9.280;2023-07-13T08:45:07;23.70;78.70
11619;DHT22;5865;48.776;9.280;2023-07-13T08:47:39;23.90;78.00
11619;DHT22;5865;48.776;9.280;2023-07-13T08:50:11;23.90;76.60
11619;DHT22;5865;48.776;9.280;2023-07-13T08:52:40;24.40;75.70
11619;DHT22;5865;48.776;9.280;2023-07-13T08:55:13;24.40;76.40
11619;DHT22;5865;48.776;9.280;2023-07-13T08:57:42;24.50;73.30
11619;DHT22;5865;48.776;9.280;2023-07-13T09:00:13;24.30;74.40
11619;DHT22;5865;48.776;9.280;2023-07-13T09:02:45;24.60;74.40
11619;DHT22;5865;48.776;9.280;2023-07-13T09:05:14;24.80;73.00
11619;DHT22;5865;48.776;9.280;2023-07-13T09:08:02;24.60;73.70
11619;DHT22;5865;48.776;9.280;2023-07-13T09:10:36;24.60;74.30
11619;DHT22;5865;48.776;9.280;2023-07-13T09:13:14;25.10;69.70
11619;DHT22;5865;48.776;9.280;2023-07-13T09:15:45;25.30;70.20
11619;DHT22;5865;48.776;9.280;2023-07-13T09:18:16;25.10;69.60
11619;DHT22;5865;48.776;9.280;2023-07-13T09:20:49;25.20;70.10
11619;DHT22;5865;48.776;9.280;2023-07-13T09:23:20;25.60;70.00
11619;DHT22;5865;48.776;9.280;2023-07-13T09:25:51;26.00;67.20
11619;DHT22;5865;48.776;9.280;2023-07-13T09:28:24;25.90;67.10
11619;DHT22;5865;48.776;9.280;2023-07-13T09:30:58;25.70;68.00
11619;DHT22;5865;48.776;9.280;2023-07-13T09:33:27;25.70;68.20
11619;DHT22;5865;48.776;9.280;2023-07-13T09:35:56;25.70;68.10
11619;DHT22;5865;48.776;9.280;2023-07-13T09:38:26;26.20;64.90
11619;DHT22;5865;48.776;9.280;2023-07-13T09:41:18;26.30;64.70
11619;DHT22;5865;48.776;9.280;2023-07-13T09:44:08;26.10;66.10
11619;DHT22;5865;48.776;9.280;2023-07-13T09:46:39;26.20;66.00
11619;DHT22;5865;48.776;9.280;2023-07-13T09:49:10;25.50;67.50
11619;DHT22;5865;48.776;9.280;2023-07-13T09:51:37;25.70;67.40
11619;DHT22;5865;48.776;9.280;2023-07-13T09:54:04;25.80;68.30
11619;DHT22;5865;48.776;9.280;2023-07-13T09:56:31;26.20;66.30
11619;DHT22;5865;48.776;9.280;2023-07-13T09:58:59;25.90;65.40
11619;DHT22;5865;48.776;9.280;2023-07-13T10:01:34;25.70;65.70
11619;DHT22;5865;48.776;9.280;2023-07-13T10:04:11;25.80;64.80
11619;DHT22;5865;48.776;9.280;2023-07-13T10:06:39;25.70;64.60
11619;DHT22;5865;48.776;9.280;2023-07-13T10:09:08;25.70;63.90
11619;DHT22;5865;48.776;9.280;2023-07-13T10:11:37;25.80;63.90
11619;DHT22;5865;48.776;9.280;2023-07-13T10:14:11;25.50;66.10
11619;DHT22;5865;48.776;9.280;2023-07-13T10:16:39;25.60;65.30
11619;DHT22;5865;48.776;9.280;2023-07-13T10:19:13;25.90;63.20
11619;DHT22;5865;48.776;9.280;2023-07-13T10:21:47;26.10;62.70
11619;DHT22;5865;48.776;9.280;2023-07-13T10:24:20;26.80;60.80
11619;DHT22;5865;48.776;9.280;2023-07-13T10:26:54;26.90;61.10
11619;DHT22;5865;48.776;9.280;2023-07-13T10:29:25;27.00;61.20
11619;DHT22;5865;48.776;9.280;2023-07-13T10:31:53;26.70;62.30
11619;DHT22;5865;48.776;9.280;2023-07-13T10:34:22;26.90;60.40
11619;DHT22;5865;48.776;9.280;2023-07-13T10:39:20;27.00;60.40
11619;DHT22;5865;48.776;9.280;2023-07-13T10:41:51;27.70;58.60
11619;DHT22;5865;48.776;9.280;2023-07-13T10:44:22;27.70;59.00
11619;DHT22;5865;48.776;9.280;2023-07-13T10:46:53;27.70;58.10
11619;DHT22;5865;48.776;9.280;2023-07-13T10:49:23;27.40;58.90
11619;DHT22;5865;48.776;9.280;2023-07-13T10:51:50;27.50;57.70
11619;DHT22;5865;48.776;9.280;2023-07-13T10:54:21;27.70;58.90
11619;DHT22;5865;48.776;9.280;2023-07-13T10:56:53;27.50;56.90
11619;DHT22;5865;48.776;9.280;2023-07-13T10:59:33;27.50;57.20
11619;DHT22;5865;48.776;9.280;2023-07-13T11:02:10;27.70;56.60
11619;DHT22;5865;48.776;9.280;2023-07-13T11:04:44;27.50;57.20
11619;DHT22;5865;48.776;9.280;2023-07-13T11:07:20;27.50;57.40
11619;DHT22;5865;48.776;9.280;2023-07-13T11:09:50;27.20;57.70
11619;DHT22;5865;48.776;9.280;2023-07-13T11:12:53;27.20;57.80
11619;DHT22;5865;48.776;9.280;2023-07-13T11:15:32;27.80;58.80
11619;DHT22;5865;48.776;9.280;2023-07-13T11:18:03;27.70;57.10
11619;DHT22;5865;48.776;9.280;2023-07-13T11:20:35;27.50;56.70
11619;DHT22;5865;48.776;9.280;2023-07-13T11:23:19;27.10;56.80
11619;DHT22;5865;48.776;9.280;2023-07-13T11:28:22;27.60;56.20
11619;DHT22;5865;48.776;9.280;2023-07-13T11:31:03;27.70;57.00
11619;DHT22;5865;48.776;9.280;2023-07-13T11:33:56;27.60;56.70
11619;DHT22;5865;48.776;9.280;2023-07-13T11:39:01;26.60;57.50
11619;DHT22;5865;48.776;9.280;2023-07-13T11:41:30;26.30;58.40
11619;DHT22;5865;48.776;9.280;2023-07-13T11:44:06;26.10;57.90
11619;DHT22;5865;48.776;9.280;2023-07-13T11:51:31;26.10;58.90
11619;DHT22;5865;48.776;9.280;2023-07-13T11:54:02;26.70;57.30
11619;DHT22;5865;48.776;9.280;2023-07-13T11:59:04;26.80;57.20
11619;DHT22;5865;48.776;9.280;2023-07-13T12:01:32;26.90;56.90
11619;DHT22;5865;48.776;9.280;2023-07-13T12:04:01;26.90;56.90
11619;DHT22;5865;48.776;9.280;2023-07-13T12:06:31;26.20;56.90
11619;DHT22;5865;48.776;9.280;2023-07-13T12:09:09;26.20;58.20
11619;DHT22;5865;48.776;9.280;2023-07-13T12:11:40;26.30;57.90
11619;DHT22;5865;48.776;9.280;2023-07-13T12:14:13;26.20;57.30
11619;DHT22;5865;48.776;9.280;2023-07-13T12:19:17;26.60;57.00
11619;DHT22;5865;48.776;9.280;2023-07-13T12:21:46;26.50;56.80
11619;DHT22;5865;48.776;9.280;2023-07-13T12:24:18;26.50;57.70
11619;DHT22;5865;48.776;9.280;2023-07-13T12:26:51;26.80;56.70
11619;DHT22;5865;48.776;9.280;2023-07-13T12:29:18;28.20;55.80
11619;DHT22;5865;48.776;9.280;2023-07-13T12:31:47;29.00;53.50
11619;DHT22;5865;48.776;9.280;2023-07-13T12:34:15;29.00;55.50
11619;DHT22;5865;48.776;9.280;2023-07-13T12:36:48;28.90;53.20
11619;DHT22;5865;48.776;9.280;2023-07-13T12:39:17;28.90;53.10
11619;DHT22;5865;48.776;9.280;2023-07-13T12:44:14;29.20;52.40
11619;DHT22;5865;48.776;9.280;2023-07-13T12:46:53;28.90;51.90
11619;DHT22;5865;48.776;9.280;2023-07-13T12:49:24;29.00;52.50
11619;DHT22;5865;48.776;9.280;2023-07-13T12:54:23;28.20;51.50
11619;DHT22;5865;48.776;9.280;2023-07-13T12:56:51;27.10;53.50
11619;DHT22;5865;48.776;9.280;2023-07-13T12:59:22;27.00;54.30
11619;DHT22;5865;48.776;9.280;2023-07-13T13:04:19;27.60;54.10
11619;DHT22;5865;48.776;9.280;2023-07-13T13:06:47;27.90;52.70
11619;DHT22;5865;48.776;9.280;2023-07-13T13:09:17;30.40;50.20
11619;DHT22;5865;48.776;9.280;2023-07-13T13:11:45;30.40;50.20
11619;DHT22;5865;48.776;9.280;2023-07-13T13:14:12;29.90;50.70
11619;DHT22;5865;48.776;9.280;2023-07-13T13:16:46;30.70;48.60
11619;DHT22;5865;48.776;9.280;2023-07-13T13:19:18;31.70;46.80
11619;DHT22;5865;48.776;9.280;2023-07-13T13:21:47;31.70;46.70
11619;DHT22;5865;48.776;9.280;2023-07-13T13:24:19;32.90;43.60
11619;DHT22;5865;48.776;9.280;2023-07-13T13:26:47;32.40;42.20
11619;DHT22;5865;48.776;9.280;2023-07-13T13:29:17;31.80;43.10
11619;DHT22;5865;48.776;9.280;2023-07-13T13:34:15;30.60;44.80
11619;DHT22;5865;48.776;9.280;2023-07-13T13:36:43;32.10;44.00
11619;DHT22;5865;48.776;9.280;2023-07-13T13:39:19;33.60;42.50
11619;DHT22;5865;48.776;9.280;2023-07-13T13:44:16;32.50;42.10
11619;DHT22;5865;48.776;9.280;2023-07-13T13:46:44;33.50;40.50
11619;DHT22;5865;48.776;9.280;2023-07-13T13:49:14;33.50;39.90
11619;DHT22;5865;48.776;9.280;2023-07-13T13:51:42;33.40;39.70
11619;DHT22;5865;48.776;9.280;2023-07-13T13:56:41;33.70;38.80
11619;DHT22;5865;48.776;9.280;2023-07-13T14:13:58;34.80;35.70
11619;DHT22;5865;48.776;9.280;2023-07-13T14:16:28;34.20;35.10
11619;DHT22;5865;48.776;9.280;2023-07-13T14:21:27;33.20;37.30
11619;DHT22;5865;48.776;9.280;2023-07-13T14:26:23;30.70;39.90
11619;DHT22;5865;48.776;9.280;2023-07-13T14:28:54;29.50;40.70
11619;DHT22;5865;48.776;9.280;2023-07-13T14:31:23;29.40;41.60
11619;DHT22;5865;48.776;9.280;2023-07-13T14:36:27;30.40;40.60
11619;DHT22;5865;48.776;9.280;2023-07-13T14:46:26;28.40;43.70
11619;DHT22;5865;48.776;9.280;2023-07-13T14:49:00;27.90;44.10
11619;DHT22;5865;48.776;9.280;2023-07-13T15:03:49;27.50;44.30
11619;DHT22;5865;48.776;9.280;2023-07-13T15:06:17;27.50;44.40
11619;DHT22;5865;48.776;9.280;2023-07-13T15:08:45;29.30;43.90
11619;DHT22;5865;48.776;9.280;2023-07-13T15:13:40;31.40;40.40
11619;DHT22;5865;48.776;9.280;2023-07-13T15:16:15;32.60;38.80
11619;DHT22;5865;48.776;9.280;2023-07-13T15:21:17;34.30;37.10
11619;DHT22;5865;48.776;9.280;2023-07-13T15:28:41;33.10;37.60
11619;DHT22;5865;48.776;9.280;2023-07-13T15:31:20;32.10;38.40
11619;DHT22;5865;48.776;9.280;2023-07-13T15:33:49;31.90;39.30
11619;DHT22;5865;48.776;9.280;2023-07-13T15:38:47;33.10;37.80
11619;DHT22;5865;48.776;9.280;2023-07-13T15:41:21;34.60;37.40
11619;DHT22;5865;48.776;9.280;2023-07-13T15:43:52;35.10;35.90
11619;DHT22;5865;48.776;9.280;2023-07-13T15:46:22;35.40;35.30
11619;DHT22;5865;48.776;9.280;2023-07-13T15:48:50;35.20;34.60
11619;DHT22;5865;48.776;9.280;2023-07-13T15:51:23;35.40;34.50
11619;DHT22;5865;48.776;9.280;2023-07-13T15:53:53;35.00;35.10
11619;DHT22;5865;48.776;9.280;2023-07-13T15:56:23;34.50;35.50
11619;DHT22;5865;48.776;9.280;2023-07-13T16:01:18;35.40;34.50
11619;DHT22;5865;48.776;9.280;2023-07-13T16:06:15;34.80;34.70
11619;DHT22;5865;48.776;9.280;2023-07-13T16:08:47;36.00;33.30
11619;DHT22;5865;48.776;9.280;2023-07-13T16:11:20;35.20;33.40
11619;DHT22;5865;48.776;9.280;2023-07-13T16:16:22;35.20;33.60
11619;DHT22;5865;48.776;9.280;2023-07-13T16:26:24;30.20;39.30
11619;DHT22;5865;48.776;9.280;2023-07-13T16:46:12;33.00;35.70
11619;DHT22;5865;48.776;9.280;2023-07-13T16:56:08;35.70;33.10
11619;DHT22;5865;48.776;9.280;2023-07-13T17:06:01;35.00;33.50
11619;DHT22;5865;48.776;9.280;2023-07-13T17:11:00;33.80;35.40
11619;DHT22;5865;48.776;9.280;2023-07-13T17:13:29;33.10;35.60
11619;DHT22;5865;48.776;9.280;2023-07-13T17:15:57;32.10;36.30
11619;DHT22;5865;48.776;9.280;2023-07-13T17:18:25;31.20;37.50
11619;DHT22;5865;48.776;9.280;2023-07-13T17:20:53;30.30;38.50
11619;DHT22;5865;48.776;9.280;2023-07-13T17:23:22;28.80;39.90
11619;DHT22;5865;48.776;9.280;2023-07-13T17:28:18;27.40;42.90
11619;DHT22;5865;48.776;9.280;2023-07-13T17:30:49;26.70;43.90
11619;DHT22;5865;48.776;9.280;2023-07-13T17:33:27;26.40;44.50
11619;DHT22;5865;48.776;9.280;2023-07-13T17:38:30;26.00;45.80
11619;DHT22;5865;48.776;9.280;2023-07-13T17:45:54;25.30;47.10
11619;DHT22;5865;48.776;9.280;2023-07-13T17:53:22;25.40;47.50
11619;DHT22;5865;48.776;9.280;2023-07-13T17:55:49;25.40;47.30
11619;DHT22;5865;48.776;9.280;2023-07-13T18:00:46;25.30;47.00
11619;DHT22;5865;48.776;9.280;2023-07-13T18:03:19;25.10;47.60
11619;DHT22;5865;48.776;9.280;2023-07-13T18:08:21;24.80;48.30
11619;DHT22;5865;48.776;9.280;2023-07-13T18:13:16;24.60;48.60
11619;DHT22;5865;48.776;9.280;2023-07-13T18:15:44;24.50;49.20
11619;DHT22;5865;48.776;9.280;2023-07-13T18:18:12;24.50;49.40
11619;DHT22;5865;48.776;9.280;2023-07-13T18:23:15;24.40;50.20
11619;DHT22;5865;48.776;9.280;2023-07-13T18:25:43;24.40;50.20
11619;DHT22;5865;48.776;9.280;2023-07-13T18:28:13;24.10;50.60
11619;DHT22;5865;48.776;9.280;2023-07-13T18:30:42;23.90;51.10
11619;DHT22;5865;48.776;9.280;2023-07-13T18:33:17;23.80;51.20
11619;DHT22;5865;48.776;9.280;2023-07-13T18:35:46;23.70;51.30
11619;DHT22;5865;48.776;9.280;2023-07-13T18:38:16;23.70;52.30
11619;DHT22;5865;48.776;9.280;2023-07-13T18:40:46;23.60;51.80
11619;DHT22;5865;48.776;9.280;2023-07-13T18:43:14;23.50;52.00
11619;DHT22;5865;48.776;9.280;2023-07-13T18:45:41;23.50;52.00
11619;DHT22;5865;48.776;9.280;2023-07-13T18:48:13;23.40;52.40
11619;DHT22;5865;48.776;9.280;2023-07-13T18:53:13;23.30;52.80
11619;DHT22;5865;48.776;9.280;2023-07-13T18:55:41;23.30;52.80
11619;DHT22;5865;48.776;9.280;2023-07-13T19:05:31;23.00;53.60
11619;DHT22;5865;48.776;9.280;2023-07-13T19:08:00;22.80;54.30
11619;DHT22;5865;48.776;9.280;2023-07-13T19:13:00;22.60;54.20
11619;DHT22;5865;48.776;9.280;2023-07-13T19:15:29;22.40;54.70
11619;DHT22;5865;48.776;9.280;2023-07-13T19:17:57;22.20;55.60
11619;DHT22;5865;48.776;9.280;2023-07-13T19:20:26;22.20;55.60
11619;DHT22;5865;48.776;9.280;2023-07-13T19:22:55;22.10;55.70
11619;DHT22;5865;48.776;9.280;2023-07-13T19:27:56;21.90;56.30
11619;DHT22;5865;48.776;9.280;2023-07-13T19:30:24;21.90;56.40
11619;DHT22;5865;48.776;9.280;2023-07-13T19:32:51;21.80;56.50
11619;DHT22;5865;48.776;9.280;2023-07-13T19:35:24;21.60;57.00
11619;DHT22;5865;48.776;9.280;2023-07-13T19:40:23;21.60;57.60
11619;DHT22;5865;48.776;9.280;2023-07-13T19:45:20;21.40;58.70
11619;DHT22;5865;48.776;9.280;2023-07-13T19:47:48;21.40;58.20
11619;DHT22;5865;48.776;9.280;2023-07-13T19:50:18;21.40;58.30
11619;DHT22;5865;48.776;9.280;2023-07-13T19:52:49;21.30;59.00
11619;DHT22;5865;48.776;9.280;2023-07-13T19:55:19;21.30;58.90
11619;DHT22;5865;48.776;9.280;2023-07-13T20:00:18;20.90;60.50
11619;DHT22;5865;48.776;9.280;2023-07-13T20:02:47;20.80;61.80
11619;DHT22;5865;48.776;9.280;2023-07-13T20:12:59;20.60;66.50
11619;DHT22;5865;48.776;9.280;2023-07-13T20:15:29;20.60;66.10
11619;DHT22;5865;48.776;9.280;2023-07-13T20:17:59;20.60;66.00
11619;DHT22;5865;48.776;9.280;2023-07-13T20:20:30;20.50;65.90
11619;DHT22;5865;48.776;9.280;2023-07-13T20:22:58;20.40;66.70